LFPG/CDG METAR and TAF weather

Enter ICAO airport designator
Station Type Date Time Source
LFPG METAR 2019/10/14 05:30 UTC NOAA

LFPG 140530Z 11011KT CAVOK 15/13 Q1009 NOSIG


Station Type Date Time Source
LFPG Decoded METAR 2019/10/14 05:30 UTC NOAA

Paris-Aeroport Charles De Gaulle, France (LFPG) 49-01N 002-32E 109M
Oct 14, 2019 - 01:30 AM EDT / 2019.10.14 0530 UTC
Wind: from the ESE (110 degrees) at 13 MPH (11 KT):0
Visibility: greater than 7 mile(s):0
Temperature: 59 F (15 C)
Dew Point: 55 F (13 C)
Relative Humidity: 87%
Pressure (altimeter): 29.80 in. Hg (1009 hPa)
ob: LFPG 140530Z 11011KT CAVOK 15/13 Q1009 NOSIG
cycle: 5

Station Type Date Time Source
LFPG TAF 2019/10/14 06:21 UTC NOAA

TAF LFPG 140500Z 1406/1512 13010KT CAVOK TX22/1415Z TN14/1506Z PROB40
TEMPO 1413/1420 17015G25KT 4000 SHRA SCT040CB PROB40
TEMPO 1418/1419 20020G45KT 2000 TSRAGR
BECMG 1419/1421 21012KT BKN020 PROB40
TEMPO 1423/1506 4000 -RA BKN012 BKN040 PROB40
TEMPO 1507/1512 4000 -SHRA

Example: see airport list